CheckWX is a tool to help pilots better visualize weather data.  It is not intended as a substitute for an official pre-flight weather briefing.

15:03:04 UTC

KEIK METAR
Erie Municipal Airport
Erie, Colorado, USA
Current

27 mins ago

KEIK 231436Z AUTO 16004KT 7SM SCT011 BKN016 OVC034 05/03 A3019 RMK AO2 T00450032
Observed
May-23 @ 14:36 UTC
Wind
  • 160° at 4 KTS
Visibility
7 SM
Flight Rules
MVFR
Cloud Levels
  • Scattered at 1,100' AGL
  • Broken at 1,600' AGL
  • Overcast at 3,400' AGL
Temperature
C / 41°F
Dewpoint
C / 37°F
Humidity
87%
Altimeter
30.19" Hg
Pressure
1022.32 hPa
Previous

45 mins ago

KEIK 231418Z AUTO 14005KT 2SM -DZ BKN009 OVC014 05/03 A3019 RMK AO2 T00450032
Observed
May-23 @ 14:18 UTC
Wind
  • 140° at 5 KTS
Visibility
2 SM
Flight Rules
IFR
Conditions
Light Drizzle
Cloud Levels
  • Broken at 900' AGL
  • Overcast at 1,400' AGL
Temperature
C / 41°F
Dewpoint
C / 37°F
Humidity
87%
Altimeter
30.19" Hg
Pressure
1022.32 hPa
Previous

1 hour ago

KEIK 231400Z AUTO 14005KT 4SM BR BKN014 OVC027 05/03 A3019 RMK AO2 T00470029
Observed
May-23 @ 14:00 UTC
Wind
  • 140° at 5 KTS
Visibility
4 SM
Flight Rules
MVFR
Conditions
Mist
Cloud Levels
  • Broken at 1,400' AGL
  • Overcast at 2,700' AGL
Temperature
C / 41°F
Dewpoint
C / 37°F
Humidity
87%
Altimeter
30.19" Hg
Pressure
1022.32 hPa